ARG1634 SABE-SAZR
Flight info
| Callsign | ARG1634 |
|---|---|
| Flight time | 1h 9m |
| Altitude | 34000 |
| Route | PAL9 PAL DCT ASADA UW68 IRASU UW73 OSA |
| Aircraft | E190/M-SDE3GILORVW/S |
Departure
| Time | 2026-04-20 16:07 |
|---|---|
| Airport | Aeroparque Jorge Newbery (SABE) |
Arrival
| Time | 2026-04-20 17:17 |
|---|---|
| Airport | Santa Rosa Airport (SAZR) |
| Time | Latitude | Longitude | Altitude | Speed | Heading |
|---|---|---|---|---|---|
| 2026-04-20 15:47 | -34.55686 | -58.41483 | 26 ft | 0 kts | 12° |
| 2026-04-20 16:01 | -34.55688 | -58.41484 | 24 ft | 4 kts | 13° |
| 2026-04-20 16:01 | -34.55710 | -58.41490 | 25 ft | 4 kts | 356° |
| 2026-04-20 16:01 | -34.55732 | -58.41480 | 26 ft | 4 kts | 307° |
| 2026-04-20 16:01 | -34.55741 | -58.41464 | 26 ft | 1 kts | 299° |
| 2026-04-20 16:02 | -34.55742 | -58.41461 | 26 ft | 0 kts | 299° |
| 2026-04-20 16:03 | -34.55741 | -58.41463 | 22 ft | 1 kts | 299° |
| 2026-04-20 16:03 | -34.55730 | -58.41489 | 25 ft | 6 kts | 299° |
| 2026-04-20 16:04 | -34.55734 | -58.41549 | 27 ft | 9 kts | 235° |
| 2026-04-20 16:04 | -34.55781 | -58.41606 | 24 ft | 10 kts | 249° |
| 2026-04-20 16:04 | -34.55757 | -58.41697 | 23 ft | 13 kts | 296° |
| 2026-04-20 16:04 | -34.55710 | -58.41800 | 24 ft | 15 kts | 304° |
| 2026-04-20 16:05 | -34.55655 | -58.41898 | 24 ft | 15 kts | 304° |
| 2026-04-20 16:05 | -34.55593 | -58.42007 | 24 ft | 17 kts | 306° |
| 2026-04-20 16:05 | -34.55520 | -58.42126 | 23 ft | 19 kts | 306° |
| 2026-04-20 16:05 | -34.55439 | -58.42259 | 23 ft | 19 kts | 307° |
| 2026-04-20 16:06 | -34.55371 | -58.42380 | 24 ft | 16 kts | 291° |
| 2026-04-20 16:06 | -34.55364 | -58.42480 | 23 ft | 8 kts | 252° |
| 2026-04-20 16:06 | -34.55404 | -58.42504 | 28 ft | 6 kts | 140° |
| 2026-04-20 16:06 | -34.55409 | -58.42496 | 24 ft | 6 kts | 127° |
| 2026-04-20 16:07 | -34.55535 | -58.42273 | 25 ft | 60 kts | 124° |
| 2026-04-20 16:07 | -34.55859 | -58.41688 | 22 ft | 111 kts | 124° |
| 2026-04-20 16:07 | -34.56192 | -58.41084 | 53 ft | 142 kts | 124° |
| 2026-04-20 16:07 | -34.56978 | -58.39628 | 706 ft | 165 kts | 121° |
| 2026-04-20 16:08 | -34.57528 | -58.38371 | 838 ft | 179 kts | 104° |
| 2026-04-20 16:08 | -34.57589 | -58.36800 | 1442 ft | 193 kts | 77° |
| 2026-04-20 16:08 | -34.57312 | -58.35740 | 1914 ft | 199 kts | 63° |
| 2026-04-20 16:08 | -34.56495 | -58.34368 | 2657 ft | 205 kts | 43° |
| 2026-04-20 16:09 | -34.55425 | -58.33174 | 3299 ft | 218 kts | 38° |
| 2026-04-20 16:09 | -34.54249 | -58.32006 | 4052 ft | 228 kts | 36° |
| 2026-04-20 16:09 | -34.52880 | -58.30887 | 4625 ft | 251 kts | 20° |
| 2026-04-20 16:09 | -34.51125 | -58.30690 | 5476 ft | 261 kts | 351° |
| 2026-04-20 16:10 | -34.49430 | -58.31500 | 6441 ft | 266 kts | 327° |
| 2026-04-20 16:10 | -34.48151 | -58.33131 | 7369 ft | 271 kts | 302° |
| 2026-04-20 16:10 | -34.47573 | -58.35315 | 8293 ft | 278 kts | 277° |
| 2026-04-20 16:10 | -34.47862 | -58.37635 | 9249 ft | 284 kts | 251° |
| 2026-04-20 16:11 | -34.48818 | -58.39753 | 10146 ft | 289 kts | 240° |
| 2026-04-20 16:11 | -34.49945 | -58.41867 | 10669 ft | 303 kts | 240° |
| 2026-04-20 16:11 | -34.51119 | -58.44056 | 11231 ft | 315 kts | 240° |
| 2026-04-20 16:11 | -34.52340 | -58.46284 | 11887 ft | 323 kts | 239° |
| 2026-04-20 16:12 | -34.53605 | -58.48549 | 12567 ft | 329 kts | 239° |
| 2026-04-20 16:12 | -34.54916 | -58.50834 | 13283 ft | 335 kts | 238° |
| 2026-04-20 16:12 | -34.56282 | -58.53139 | 13982 ft | 340 kts | 237° |
| 2026-04-20 16:12 | -34.57700 | -58.55442 | 14675 ft | 341 kts | 236° |
| 2026-04-20 16:13 | -34.59172 | -58.57745 | 15379 ft | 345 kts | 235° |
| 2026-04-20 16:13 | -34.60674 | -58.60053 | 16080 ft | 347 kts | 237° |
| 2026-04-20 16:13 | -34.61854 | -58.62602 | 16682 ft | 348 kts | 247° |
| 2026-04-20 16:13 | -34.62892 | -58.65207 | 17285 ft | 351 kts | 246° |
| 2026-04-20 16:14 | -34.63972 | -58.67850 | 17912 ft | 353 kts | 246° |
| 2026-04-20 16:14 | -34.65053 | -58.70501 | 18547 ft | 353 kts | 246° |
| 2026-04-20 16:14 | -34.66148 | -58.73169 | 19128 ft | 353 kts | 246° |
| 2026-04-20 16:14 | -34.67248 | -58.75849 | 19737 ft | 354 kts | 246° |
| 2026-04-20 16:15 | -34.68354 | -58.78539 | 20367 ft | 355 kts | 247° |
| 2026-04-20 16:15 | -34.69468 | -58.81248 | 20990 ft | 357 kts | 247° |
| 2026-04-20 16:15 | -34.70584 | -58.83964 | 21541 ft | 360 kts | 247° |
| 2026-04-20 16:15 | -34.71708 | -58.86696 | 22063 ft | 363 kts | 247° |
| 2026-04-20 16:16 | -34.72837 | -58.89444 | 22525 ft | 366 kts | 247° |
| 2026-04-20 16:16 | -34.73969 | -58.92199 | 23031 ft | 367 kts | 247° |
| 2026-04-20 16:16 | -34.75107 | -58.94974 | 23477 ft | 369 kts | 247° |
| 2026-04-20 16:16 | -34.76246 | -58.97751 | 23959 ft | 368 kts | 248° |
| 2026-04-20 16:17 | -34.77392 | -59.00546 | 24398 ft | 368 kts | 248° |
| 2026-04-20 16:17 | -34.78542 | -59.03357 | 24736 ft | 372 kts | 248° |
| 2026-04-20 16:17 | -34.79698 | -59.06183 | 25043 ft | 375 kts | 248° |
| 2026-04-20 16:17 | -34.80858 | -59.09019 | 25435 ft | 375 kts | 248° |
| 2026-04-20 16:18 | -34.82022 | -59.11869 | 25856 ft | 376 kts | 248° |
| 2026-04-20 16:18 | -34.83192 | -59.14736 | 26151 ft | 380 kts | 248° |
| 2026-04-20 16:18 | -34.84371 | -59.17627 | 26471 ft | 381 kts | 249° |
| 2026-04-20 16:18 | -34.85547 | -59.20514 | 26903 ft | 382 kts | 249° |
| 2026-04-20 16:19 | -34.86729 | -59.23417 | 27245 ft | 384 kts | 249° |
| 2026-04-20 16:19 | -34.87919 | -59.26343 | 27572 ft | 386 kts | 249° |
| 2026-04-20 16:19 | -34.89099 | -59.29249 | 27883 ft | 389 kts | 249° |
| 2026-04-20 16:19 | -34.90305 | -59.32221 | 28254 ft | 392 kts | 250° |
| 2026-04-20 16:20 | -34.91517 | -59.35208 | 28572 ft | 395 kts | 250° |
| 2026-04-20 16:20 | -34.92736 | -59.38216 | 28853 ft | 397 kts | 250° |
| 2026-04-20 16:20 | -34.93961 | -59.41241 | 29146 ft | 398 kts | 250° |
| 2026-04-20 16:20 | -34.95185 | -59.44263 | 29583 ft | 397 kts | 250° |
| 2026-04-20 16:21 | -34.96410 | -59.47295 | 29788 ft | 400 kts | 250° |
| 2026-04-20 16:21 | -34.97639 | -59.50338 | 30140 ft | 400 kts | 250° |
| 2026-04-20 16:21 | -34.98868 | -59.53380 | 30467 ft | 399 kts | 251° |
| 2026-04-20 16:21 | -35.00093 | -59.56420 | 30791 ft | 398 kts | 251° |
| 2026-04-20 16:22 | -35.01314 | -59.59451 | 31121 ft | 397 kts | 251° |
| 2026-04-20 16:22 | -35.02453 | -59.62503 | 31436 ft | 391 kts | 258° |
| 2026-04-20 16:22 | -35.03108 | -59.65682 | 31751 ft | 385 kts | 263° |
| 2026-04-20 16:22 | -35.03677 | -59.68826 | 32084 ft | 384 kts | 263° |
| 2026-04-20 16:23 | -35.04254 | -59.72006 | 32408 ft | 383 kts | 264° |
| 2026-04-20 16:23 | -35.04825 | -59.75170 | 32748 ft | 382 kts | 264° |
| 2026-04-20 16:23 | -35.05395 | -59.78337 | 33068 ft | 381 kts | 264° |
| 2026-04-20 16:23 | -35.05960 | -59.81488 | 33377 ft | 380 kts | 264° |
| 2026-04-20 16:24 | -35.06522 | -59.84632 | 33681 ft | 379 kts | 264° |
| 2026-04-20 16:24 | -35.07083 | -59.87774 | 34008 ft | 377 kts | 264° |
| 2026-04-20 16:24 | -35.08175 | -59.93904 | 34076 ft | 362 kts | 264° |
| 2026-04-20 16:25 | -35.09229 | -59.99867 | 34077 ft | 357 kts | 264° |
| 2026-04-20 16:25 | -35.10270 | -60.05785 | 34067 ft | 356 kts | 264° |
| 2026-04-20 16:26 | -35.11307 | -60.11688 | 34075 ft | 355 kts | 265° |
| 2026-04-20 16:26 | -35.12339 | -60.17579 | 34081 ft | 354 kts | 265° |
| 2026-04-20 16:27 | -35.13367 | -60.23461 | 34085 ft | 354 kts | 265° |
| 2026-04-20 16:27 | -35.14391 | -60.29343 | 34095 ft | 353 kts | 265° |
| 2026-04-20 16:28 | -35.15404 | -60.35177 | 34098 ft | 353 kts | 265° |
| 2026-04-20 16:28 | -35.16422 | -60.41055 | 34104 ft | 353 kts | 265° |
| 2026-04-20 16:29 | -35.17437 | -60.46927 | 34072 ft | 353 kts | 265° |
| 2026-04-20 16:29 | -35.18448 | -60.52797 | 34070 ft | 352 kts | 265° |
| 2026-04-20 16:30 | -35.19453 | -60.58653 | 34069 ft | 352 kts | 265° |
| 2026-04-20 16:30 | -35.20456 | -60.64510 | 34062 ft | 352 kts | 265° |
| 2026-04-20 16:31 | -35.21457 | -60.70370 | 34064 ft | 352 kts | 265° |
| 2026-04-20 16:31 | -35.22454 | -60.76230 | 34066 ft | 352 kts | 265° |
| 2026-04-20 16:32 | -35.23448 | -60.82087 | 34064 ft | 352 kts | 265° |
| 2026-04-20 16:32 | -35.24433 | -60.87913 | 34067 ft | 352 kts | 265° |
| 2026-04-20 16:33 | -35.25423 | -60.93785 | 34064 ft | 352 kts | 265° |
| 2026-04-20 16:33 | -35.26410 | -60.99654 | 34066 ft | 352 kts | 265° |
| 2026-04-20 16:34 | -35.27388 | -61.05484 | 34076 ft | 351 kts | 265° |
| 2026-04-20 16:34 | -35.28367 | -61.11345 | 34067 ft | 352 kts | 266° |
| 2026-04-20 16:35 | -35.29344 | -61.17217 | 34072 ft | 352 kts | 266° |
| 2026-04-20 16:35 | -35.30318 | -61.23083 | 34077 ft | 352 kts | 266° |
| 2026-04-20 16:36 | -35.31292 | -61.28964 | 34075 ft | 351 kts | 266° |
| 2026-04-20 16:36 | -35.32260 | -61.34835 | 34077 ft | 352 kts | 266° |
| 2026-04-20 16:37 | -35.33221 | -61.40674 | 34071 ft | 351 kts | 266° |
| 2026-04-20 16:37 | -35.34185 | -61.46550 | 34076 ft | 352 kts | 266° |
| 2026-04-20 16:38 | -35.35148 | -61.52426 | 34075 ft | 352 kts | 266° |
| 2026-04-20 16:38 | -35.36109 | -61.58306 | 34075 ft | 352 kts | 266° |
| 2026-04-20 16:39 | -35.37068 | -61.64187 | 34086 ft | 351 kts | 266° |
| 2026-04-20 16:39 | -35.38021 | -61.70065 | 34083 ft | 351 kts | 266° |
| 2026-04-20 16:40 | -35.39673 | -61.75716 | 34095 ft | 354 kts | 249° |
| 2026-04-20 16:40 | -35.40921 | -61.78269 | 34055 ft | 343 kts | 250° |
| 2026-04-20 16:40 | -35.42132 | -61.80755 | 34034 ft | 336 kts | 250° |
| 2026-04-20 16:41 | -35.44501 | -61.85626 | 34096 ft | 332 kts | 250° |
| 2026-04-20 16:41 | -35.46852 | -61.90457 | 34094 ft | 332 kts | 250° |
| 2026-04-20 16:42 | -35.49216 | -61.95312 | 34098 ft | 331 kts | 250° |
| 2026-04-20 16:42 | -35.51575 | -62.00161 | 34100 ft | 331 kts | 250° |
| 2026-04-20 16:43 | -35.53934 | -62.05013 | 34107 ft | 331 kts | 250° |
| 2026-04-20 16:43 | -35.56291 | -62.09868 | 34107 ft | 331 kts | 250° |
| 2026-04-20 16:44 | -35.58647 | -62.14726 | 34109 ft | 331 kts | 250° |
| 2026-04-20 16:44 | -35.61000 | -62.19588 | 34102 ft | 331 kts | 250° |
| 2026-04-20 16:45 | -35.63350 | -62.24447 | 34108 ft | 331 kts | 250° |
| 2026-04-20 16:45 | -35.65699 | -62.29311 | 34106 ft | 331 kts | 250° |
| 2026-04-20 16:46 | -35.68033 | -62.34150 | 34110 ft | 330 kts | 250° |
| 2026-04-20 16:46 | -35.70373 | -62.39011 | 34104 ft | 330 kts | 250° |
| 2026-04-20 16:47 | -35.72708 | -62.43866 | 34115 ft | 329 kts | 250° |
| 2026-04-20 16:47 | -35.75040 | -62.48724 | 34115 ft | 329 kts | 250° |
| 2026-04-20 16:48 | -35.77370 | -62.53582 | 34117 ft | 329 kts | 250° |
| 2026-04-20 16:48 | -35.79696 | -62.58442 | 34118 ft | 329 kts | 250° |
| 2026-04-20 16:49 | -35.82019 | -62.63301 | 34120 ft | 329 kts | 250° |
| 2026-04-20 16:49 | -35.84343 | -62.68172 | 33885 ft | 334 kts | 250° |
| 2026-04-20 16:50 | -35.85522 | -62.70639 | 33674 ft | 332 kts | 250° |
| 2026-04-20 16:50 | -35.86678 | -62.73062 | 33443 ft | 333 kts | 250° |
| 2026-04-20 16:50 | -35.87868 | -62.75560 | 32971 ft | 334 kts | 249° |
| 2026-04-20 16:50 | -35.89031 | -62.77996 | 32562 ft | 332 kts | 249° |
| 2026-04-20 16:51 | -35.90195 | -62.80436 | 32098 ft | 329 kts | 249° |
| 2026-04-20 16:51 | -35.91349 | -62.82859 | 31691 ft | 326 kts | 249° |
| 2026-04-20 16:51 | -35.92492 | -62.85259 | 31254 ft | 323 kts | 249° |
| 2026-04-20 16:51 | -35.93623 | -62.87639 | 30837 ft | 320 kts | 249° |
| 2026-04-20 16:52 | -35.94744 | -62.90000 | 30411 ft | 317 kts | 249° |
| 2026-04-20 16:52 | -35.95854 | -62.92340 | 29968 ft | 315 kts | 249° |
| 2026-04-20 16:52 | -35.96953 | -62.94655 | 29601 ft | 310 kts | 249° |
| 2026-04-20 16:52 | -35.98038 | -62.96947 | 29170 ft | 308 kts | 249° |
| 2026-04-20 16:53 | -35.99115 | -62.99223 | 28783 ft | 306 kts | 249° |
| 2026-04-20 16:53 | -36.00187 | -63.01491 | 28383 ft | 305 kts | 249° |
| 2026-04-20 16:53 | -36.01254 | -63.03746 | 27988 ft | 304 kts | 249° |
| 2026-04-20 16:53 | -36.02318 | -63.05999 | 27589 ft | 303 kts | 249° |
| 2026-04-20 16:54 | -36.03022 | -63.07488 | 27339 ft | 302 kts | 248° |
| 2026-04-20 16:54 | -36.04079 | -63.09727 | 26938 ft | 300 kts | 248° |
| 2026-04-20 16:54 | -36.05128 | -63.11950 | 26556 ft | 299 kts | 248° |
| 2026-04-20 16:54 | -36.06172 | -63.14163 | 26166 ft | 297 kts | 248° |
| 2026-04-20 16:55 | -36.07210 | -63.16367 | 25775 ft | 296 kts | 248° |
| 2026-04-20 16:55 | -36.08241 | -63.18556 | 25391 ft | 294 kts | 248° |
| 2026-04-20 16:55 | -36.09267 | -63.20738 | 25016 ft | 292 kts | 248° |
| 2026-04-20 16:55 | -36.10288 | -63.22908 | 24639 ft | 291 kts | 248° |
| 2026-04-20 16:56 | -36.11289 | -63.25042 | 24276 ft | 289 kts | 248° |
| 2026-04-20 16:56 | -36.12297 | -63.27191 | 23887 ft | 288 kts | 248° |
| 2026-04-20 16:56 | -36.13312 | -63.29356 | 23471 ft | 286 kts | 248° |
| 2026-04-20 16:56 | -36.14291 | -63.31443 | 23153 ft | 282 kts | 248° |
| 2026-04-20 16:57 | -36.15269 | -63.33531 | 22783 ft | 280 kts | 248° |
| 2026-04-20 16:57 | -36.16244 | -63.35615 | 22428 ft | 278 kts | 248° |
| 2026-04-20 16:57 | -36.17211 | -63.37686 | 22079 ft | 278 kts | 248° |
| 2026-04-20 16:57 | -36.18178 | -63.39757 | 21718 ft | 278 kts | 247° |
| 2026-04-20 16:58 | -36.19142 | -63.41821 | 21365 ft | 277 kts | 247° |
| 2026-04-20 16:58 | -36.20103 | -63.43880 | 21013 ft | 276 kts | 247° |
| 2026-04-20 16:58 | -36.21063 | -63.45937 | 20659 ft | 275 kts | 247° |
| 2026-04-20 16:58 | -36.22018 | -63.47983 | 20319 ft | 274 kts | 247° |
| 2026-04-20 16:59 | -36.22971 | -63.50030 | 19963 ft | 273 kts | 247° |
| 2026-04-20 16:59 | -36.23918 | -63.52065 | 19606 ft | 273 kts | 247° |
| 2026-04-20 16:59 | -36.24861 | -63.54091 | 19277 ft | 270 kts | 246° |
| 2026-04-20 16:59 | -36.25800 | -63.56110 | 18924 ft | 270 kts | 246° |
| 2026-04-20 17:00 | -36.27664 | -63.60124 | 18221 ft | 267 kts | 246° |
| 2026-04-20 17:00 | -36.28583 | -63.62103 | 17907 ft | 264 kts | 246° |
| 2026-04-20 17:00 | -36.29482 | -63.64042 | 17575 ft | 263 kts | 246° |
| 2026-04-20 17:01 | -36.30392 | -63.66009 | 17227 ft | 263 kts | 246° |
| 2026-04-20 17:01 | -36.31301 | -63.67973 | 16925 ft | 263 kts | 246° |
| 2026-04-20 17:01 | -36.32211 | -63.69942 | 16564 ft | 263 kts | 246° |
| 2026-04-20 17:01 | -36.33121 | -63.71906 | 16245 ft | 262 kts | 246° |
| 2026-04-20 17:02 | -36.34025 | -63.73863 | 15934 ft | 261 kts | 246° |
| 2026-04-20 17:02 | -36.34931 | -63.75821 | 15584 ft | 261 kts | 246° |
| 2026-04-20 17:02 | -36.35832 | -63.77772 | 15253 ft | 260 kts | 246° |
| 2026-04-20 17:02 | -36.36729 | -63.79715 | 14927 ft | 259 kts | 246° |
| 2026-04-20 17:03 | -36.37621 | -63.81649 | 14623 ft | 257 kts | 245° |
| 2026-04-20 17:03 | -36.38508 | -63.83574 | 14275 ft | 257 kts | 246° |
| 2026-04-20 17:03 | -36.39391 | -63.85493 | 13952 ft | 255 kts | 245° |
| 2026-04-20 17:03 | -36.40270 | -63.87404 | 13628 ft | 253 kts | 245° |
| 2026-04-20 17:04 | -36.41129 | -63.89271 | 13340 ft | 251 kts | 245° |
| 2026-04-20 17:04 | -36.41997 | -63.91164 | 13016 ft | 252 kts | 245° |
| 2026-04-20 17:04 | -36.42866 | -63.93055 | 12709 ft | 252 kts | 245° |
| 2026-04-20 17:04 | -36.43736 | -63.94952 | 12377 ft | 253 kts | 245° |
| 2026-04-20 17:05 | -36.44606 | -63.96852 | 12048 ft | 254 kts | 244° |
| 2026-04-20 17:05 | -36.45478 | -63.98755 | 11765 ft | 253 kts | 244° |
| 2026-04-20 17:05 | -36.46348 | -64.00652 | 11428 ft | 254 kts | 244° |
| 2026-04-20 17:05 | -36.47221 | -64.02558 | 11122 ft | 253 kts | 244° |
| 2026-04-20 17:06 | -36.48091 | -64.04462 | 10817 ft | 254 kts | 243° |
| 2026-04-20 17:06 | -36.48966 | -64.06374 | 10498 ft | 254 kts | 243° |
| 2026-04-20 17:06 | -36.49840 | -64.08287 | 10160 ft | 255 kts | 243° |
| 2026-04-20 17:06 | -36.50711 | -64.10197 | 9842 ft | 253 kts | 243° |
| 2026-04-20 17:07 | -36.51566 | -64.12070 | 9561 ft | 251 kts | 243° |
| 2026-04-20 17:07 | -36.52431 | -64.13965 | 9219 ft | 252 kts | 243° |
| 2026-04-20 17:07 | -36.53293 | -64.15863 | 8916 ft | 251 kts | 243° |
| 2026-04-20 17:07 | -36.54151 | -64.17747 | 8609 ft | 250 kts | 243° |
| 2026-04-20 17:08 | -36.55005 | -64.19628 | 8314 ft | 250 kts | 242° |
| 2026-04-20 17:08 | -36.55860 | -64.21504 | 7976 ft | 250 kts | 243° |
| 2026-04-20 17:08 | -36.56467 | -64.23494 | 7680 ft | 244 kts | 268° |
| 2026-04-20 17:08 | -36.56110 | -64.25495 | 7430 ft | 239 kts | 304° |
| 2026-04-20 17:09 | -36.54875 | -64.26824 | 7103 ft | 239 kts | 339° |
| 2026-04-20 17:09 | -36.53254 | -64.27194 | 6807 ft | 238 kts | 356° |
| 2026-04-20 17:09 | -36.51607 | -64.27369 | 6511 ft | 237 kts | 354° |
| 2026-04-20 17:09 | -36.49955 | -64.27624 | 6133 ft | 238 kts | 353° |
| 2026-04-20 17:10 | -36.48314 | -64.27893 | 5859 ft | 237 kts | 353° |
| 2026-04-20 17:10 | -36.46673 | -64.28185 | 5372 ft | 246 kts | 352° |
| 2026-04-20 17:10 | -36.44972 | -64.28513 | 5049 ft | 247 kts | 351° |
| 2026-04-20 17:10 | -36.43265 | -64.28868 | 4678 ft | 251 kts | 351° |
| 2026-04-20 17:11 | -36.41551 | -64.29238 | 4375 ft | 245 kts | 350° |
| 2026-04-20 17:11 | -36.39901 | -64.29585 | 4005 ft | 237 kts | 355° |
| 2026-04-20 17:11 | -36.38335 | -64.29186 | 3664 ft | 228 kts | 33° |
| 2026-04-20 17:11 | -36.37388 | -64.27765 | 3454 ft | 208 kts | 76° |
| 2026-04-20 17:12 | -36.37459 | -64.26126 | 3331 ft | 184 kts | 121° |
| 2026-04-20 17:12 | -36.38372 | -64.25166 | 3226 ft | 170 kts | 159° |
| 2026-04-20 17:12 | -36.39486 | -64.24786 | 3342 ft | 158 kts | 161° |
| 2026-04-20 17:12 | -36.40441 | -64.24319 | 4169 ft | 140 kts | 159° |
| 2026-04-20 17:13 | -36.41429 | -64.23896 | 4376 ft | 164 kts | 163° |
| 2026-04-20 17:13 | -36.42508 | -64.23547 | 4522 ft | 167 kts | 175° |
| 2026-04-20 17:13 | -36.43764 | -64.23790 | 3783 ft | 200 kts | 194° |
| 2026-04-20 17:13 | -36.45167 | -64.24192 | 3284 ft | 200 kts | 189° |
| 2026-04-20 17:14 | -36.46469 | -64.24494 | 3021 ft | 188 kts | 188° |
| 2026-04-20 17:14 | -36.47712 | -64.24795 | 2812 ft | 175 kts | 189° |
| 2026-04-20 17:14 | -36.48852 | -64.25093 | 2560 ft | 161 kts | 188° |
| 2026-04-20 17:14 | -36.49916 | -64.25355 | 2341 ft | 152 kts | 188° |
| 2026-04-20 17:15 | -36.50941 | -64.25606 | 2158 ft | 148 kts | 188° |
| 2026-04-20 17:15 | -36.51923 | -64.25846 | 1992 ft | 139 kts | 189° |
| 2026-04-20 17:15 | -36.52839 | -64.26076 | 1758 ft | 130 kts | 188° |
| 2026-04-20 17:15 | -36.53725 | -64.26297 | 1555 ft | 130 kts | 188° |
| 2026-04-20 17:16 | -36.54618 | -64.26514 | 1375 ft | 131 kts | 188° |
| 2026-04-20 17:16 | -36.55508 | -64.26736 | 1142 ft | 129 kts | 187° |
| 2026-04-20 17:16 | -36.56386 | -64.26954 | 964 ft | 128 kts | 186° |
| 2026-04-20 17:16 | -36.57234 | -64.27164 | 785 ft | 120 kts | 188° |
| 2026-04-20 17:17 | -36.58049 | -64.27374 | 648 ft | 115 kts | 188° |
| 2026-04-20 17:17 | -36.58720 | -64.27533 | 624 ft | 78 kts | 189° |
| 2026-04-20 17:17 | -36.59085 | -64.27634 | 625 ft | 31 kts | 207° |
| 2026-04-20 17:17 | -36.59146 | -64.27724 | 624 ft | 0 kts | 245° |
| 2026-04-20 17:18 | -36.59147 | -64.27725 | 624 ft | 1 kts | 244° |
| 2026-04-20 17:18 | -36.59153 | -64.27742 | 635 ft | 4 kts | 245° |
| 2026-04-20 17:19 | -36.59167 | -64.27783 | 626 ft | 7 kts | 249° |
| 2026-04-20 17:19 | -36.59179 | -64.27848 | 625 ft | 8 kts | 269° |
| 2026-04-20 17:19 | -36.59175 | -64.27885 | 623 ft | 0 kts | 280° |
| 2026-04-20 17:19 | -36.59174 | -64.27889 | 623 ft | 1 kts | 282° |
| 2026-04-20 17:20 | -36.59173 | -64.27897 | 626 ft | 0 kts | 282° |